Terminal Aerodrome Forecast
Issued by NWS

Home | Current Version | Previous Version | Text Only | Print | Product List | Glossary On
Versions: 1 2 3 4 5 6 7 8 9 10 11 12 13 14 15 16 17
000
FTUS46 KMTR 311100
TAFSTS
TAF
KSTS 311133Z 3112/0112 20003KT 2SM BR OVC003
     FM311700 VRB04KT P6SM SKC
     FM312100 20010KT P6SM SKC
     FM010500 16005KT P6SM SKC
     FM010800 VRB03KT 2SM BR OVC005=

USA.gov is the U.S. government's official web portal to all federal, state and local government web resources and services.